sensor_id;sensor_type;location;lat;lon;timestamp;pressure;altitude;pressure_sealevel;temperature;humidity
6034;BME280;3045;43.226;27.858;2024-02-23T00:00:24;148055.50;;;8.00;100.00
6034;BME280;3045;43.226;27.858;2024-02-23T00:02:51;148017.69;;;7.85;100.00
6034;BME280;3045;43.226;27.858;2024-02-23T00:05:19;147987.38;;;7.72;100.00
6034;BME280;3045;43.226;27.858;2024-02-23T00:07:46;147974.81;;;7.67;100.00
6034;BME280;3045;43.226;27.858;2024-02-23T00:10:14;147992.44;;;7.74;100.00
6034;BME280;3045;43.226;27.858;2024-02-23T00:12:41;148000.00;;;7.77;100.00
6034;BME280;3045;43.226;27.858;2024-02-23T00:15:10;148020.19;;;7.86;100.00
6034;BME280;3045;43.226;27.858;2024-02-23T00:17:38;148022.72;;;7.87;100.00
6034;BME280;3045;43.226;27.858;2024-02-23T00:20:09;148037.88;;;7.93;100.00
6034;BME280;3045;43.226;27.858;2024-02-23T00:22:36;148046.69;;;7.96;100.00
6034;BME280;3045;43.226;27.858;2024-02-23T00:25:04;148042.91;;;7.95;100.00
6034;BME280;3045;43.226;27.858;2024-02-23T00:27:31;148040.34;;;7.94;100.00
6034;BME280;3045;43.226;27.858;2024-02-23T00:29:58;148046.69;;;7.96;100.00
6034;BME280;3045;43.226;27.858;2024-02-23T00:32:25;148026.50;;;7.88;100.00
6034;BME280;3045;43.226;27.858;2024-02-23T00:34:53;148036.59;;;7.92;100.00
6034;BME280;3045;43.226;27.858;2024-02-23T00:37:20;148042.91;;;7.95;100.00
6034;BME280;3045;43.226;27.858;2024-02-23T00:39:47;148070.69;;;8.06;100.00
6034;BME280;3045;43.226;27.858;2024-02-23T00:42:15;148040.34;;;7.94;100.00
6034;BME280;3045;43.226;27.858;2024-02-23T00:44:42;148012.63;;;7.82;100.00
6034;BME280;3045;43.226;27.858;2024-02-23T00:47:09;147997.53;;;7.76;100.00
6034;BME280;3045;43.226;27.858;2024-02-23T00:49:36;148010.09;;;7.81;100.00
6034;BME280;3045;43.226;27.858;2024-02-23T00:52:04;148035.34;;;7.92;100.00
6034;BME280;3045;43.226;27.858;2024-02-23T00:54:32;148037.88;;;7.93;100.00
6034;BME280;3045;43.226;27.858;2024-02-23T00:56:59;148007.59;;;7.80;100.00
6034;BME280;3045;43.226;27.858;2024-02-23T00:59:26;148059.31;;;8.01;100.00
6034;BME280;3045;43.226;27.858;2024-02-23T01:01:53;148041.63;;;7.94;100.00
6034;BME280;3045;43.226;27.858;2024-02-23T01:04:21;148046.69;;;7.96;100.00
6034;BME280;3045;43.226;27.858;2024-02-23T01:06:48;148037.88;;;7.93;100.00
6034;BME280;3045;43.226;27.858;2024-02-23T01:09:16;148017.69;;;7.85;100.00
6034;BME280;3045;43.226;27.858;2024-02-23T01:11:46;148045.44;;;7.96;100.00
6034;BME280;3045;43.226;27.858;2024-02-23T01:14:13;148055.50;;;8.00;100.00
6034;BME280;3045;43.226;27.858;2024-02-23T01:16:40;148070.69;;;8.06;100.00
6034;BME280;3045;43.226;27.858;2024-02-23T01:19:07;148027.78;;;7.89;100.00
6034;BME280;3045;43.226;27.858;2024-02-23T01:21:34;148078.22;;;8.09;100.00
6034;BME280;3045;43.226;27.858;2024-02-23T01:24:02;147457.28;;;8.15;100.00
6034;BME280;3045;43.226;27.858;2024-02-23T01:26:31;144820.66;;;8.16;100.00
6034;BME280;3045;43.226;27.858;2024-02-23T01:28:58;145624.16;;;8.23;100.00
6034;BME280;3045;43.226;27.858;2024-02-23T01:31:25;144207.03;;;8.27;100.00
6034;BME280;3045;43.226;27.858;2024-02-23T01:33:52;140804.84;;;8.29;100.00
6034;BME280;3045;43.226;27.858;2024-02-23T01:36:20;145056.13;;;8.21;100.00
6034;BME280;3045;43.226;27.858;2024-02-23T01:38:47;139564.34;;;8.50;100.00
6034;BME280;3045;43.226;27.858;2024-02-23T01:41:14;138572.16;;;8.60;100.00
6034;BME280;3045;43.226;27.858;2024-02-23T01:43:42;141307.00;;;8.68;100.00
6034;BME280;3045;43.226;27.858;2024-02-23T01:46:09;146134.66;;;8.79;100.00
6034;BME280;3045;43.226;27.858;2024-02-23T01:48:36;148265.00;;;8.84;100.00
6034;BME280;3045;43.226;27.858;2024-02-23T01:51:04;148244.81;;;8.76;100.00
6034;BME280;3045;43.226;27.858;2024-02-23T01:53:31;148280.19;;;8.90;100.00
6034;BME280;3045;43.226;27.858;2024-02-23T01:55:59;148278.91;;;8.89;100.00
6034;BME280;3045;43.226;27.858;2024-02-23T01:58:28;148267.56;;;8.85;100.00
6034;BME280;3045;43.226;27.858;2024-02-23T02:00:56;148266.28;;;8.84;100.00
6034;BME280;3045;43.226;27.858;2024-02-23T02:03:23;148222.09;;;8.66;100.00
6034;BME280;3045;43.226;27.858;2024-02-23T02:05:51;148244.81;;;8.76;100.00
6034;BME280;3045;43.226;27.858;2024-02-23T02:08:19;148244.81;;;8.76;100.00
6034;BME280;3045;43.226;27.858;2024-02-23T02:10:46;148270.09;;;8.86;100.00
6034;BME280;3045;43.226;27.858;2024-02-23T02:13:15;147107.19;;;8.83;100.00
6034;BME280;3045;43.226;27.858;2024-02-23T02:15:42;146835.16;;;8.75;100.00
6034;BME280;3045;43.226;27.858;2024-02-23T02:18:11;141052.75;;;8.82;100.00
6034;BME280;3045;43.226;27.858;2024-02-23T02:20:40;139982.03;;;8.92;100.00
6034;BME280;3045;43.226;27.858;2024-02-23T02:23:10;145166.28;;;8.86;100.00
6034;BME280;3045;43.226;27.858;2024-02-23T02:25:37;143395.66;;;8.93;100.00
6034;BME280;3045;43.226;27.858;2024-02-23T02:28:06;143688.94;;;9.02;100.00
6034;BME280;3045;43.226;27.858;2024-02-23T02:30:34;147751.13;;;9.06;100.00
6034;BME280;3045;43.226;27.858;2024-02-23T02:33:01;148317.84;;;9.08;100.00
6034;BME280;3045;43.226;27.858;2024-02-23T02:35:29;148319.28;;;9.05;100.00
6034;BME280;3045;43.226;27.858;2024-02-23T02:37:56;146169.34;;;8.95;100.00
6034;BME280;3045;43.226;27.858;2024-02-23T02:40:23;142267.50;;;9.02;100.00
6034;BME280;3045;43.226;27.858;2024-02-23T02:42:50;140937.50;;;9.01;100.00
6034;BME280;3045;43.226;27.858;2024-02-23T02:45:17;143663.84;;;8.96;100.00
6034;BME280;3045;43.226;27.858;2024-02-23T02:47:44;141210.75;;;9.04;100.00
6034;BME280;3045;43.226;27.858;2024-02-23T02:50:12;142252.28;;;9.07;100.00
6034;BME280;3045;43.226;27.858;2024-02-23T02:52:40;144420.56;;;9.17;100.00
6034;BME280;3045;43.226;27.858;2024-02-23T02:55:08;143945.94;;;9.12;100.00
6034;BME280;3045;43.226;27.858;2024-02-23T02:57:35;141422.19;;;9.04;100.00
6034;BME280;3045;43.226;27.858;2024-02-23T03:00:02;137441.00;;;8.98;100.00
6034;BME280;3045;43.226;27.858;2024-02-23T03:02:30;132191.19;;;9.04;100.00
6034;BME280;3045;43.226;27.858;2024-02-23T03:04:57;131725.47;;;9.11;100.00
6034;BME280;3045;43.226;27.858;2024-02-23T03:07:25;130311.69;;;8.99;100.00
6034;BME280;3045;43.226;27.858;2024-02-23T03:09:53;132227.44;;;8.92;100.00
6034;BME280;3045;43.226;27.858;2024-02-23T03:12:20;131807.03;;;9.03;100.00
6034;BME280;3045;43.226;27.858;2024-02-23T03:14:47;128118.91;;;9.01;100.00
6034;BME280;3045;43.226;27.858;2024-02-23T03:17:15;126202.28;;;9.04;100.00
6034;BME280;3045;43.226;27.858;2024-02-23T03:19:42;123428.66;;;8.95;100.00
6034;BME280;3045;43.226;27.858;2024-02-23T03:22:09;118809.16;;;8.99;100.00
6034;BME280;3045;43.226;27.858;2024-02-23T03:24:36;114193.31;;;9.00;100.00
6034;BME280;3045;43.226;27.858;2024-02-23T03:27:04;110880.66;;;8.91;100.00
6034;BME280;3045;43.226;27.858;2024-02-23T03:29:31;106261.28;;;8.84;100.00
6034;BME280;3045;43.226;27.858;2024-02-23T03:31:58;103667.31;;;9.04;100.00
6034;BME280;3045;43.226;27.858;2024-02-23T03:34:27;107944.28;;;9.05;100.00
6034;BME280;3045;43.226;27.858;2024-02-23T03:36:54;109277.56;;;9.14;100.00
6034;BME280;3045;43.226;27.858;2024-02-23T03:39:21;109272.00;;;9.11;100.00
6034;BME280;3045;43.226;27.858;2024-02-23T03:41:48;110585.34;;;9.09;100.00
6034;BME280;3045;43.226;27.858;2024-02-23T03:44:16;109932.38;;;9.12;100.00
6034;BME280;3045;43.226;27.858;2024-02-23T03:46:43;107630.84;;;9.13;100.00
6034;BME280;3045;43.226;27.858;2024-02-23T03:49:10;106653.78;;;9.19;100.00
6034;BME280;3045;43.226;27.858;2024-02-23T03:51:38;108263.25;;;8.99;100.00
6034;BME280;3045;43.226;27.858;2024-02-23T03:54:06;103999.53;;;9.06;100.00
6034;BME280;3045;43.226;27.858;2024-02-23T03:56:38;102026.16;;;9.05;100.00
6034;BME280;3045;43.226;27.858;2024-02-23T03:59:05;97430.13;;;9.05;100.00
6034;BME280;3045;43.226;27.858;2024-02-23T04:01:36;96454.28;;;9.10;100.00
6034;BME280;3045;43.226;27.858;2024-02-23T04:04:04;100729.59;;;9.15;100.00
6034;BME280;3045;43.226;27.858;2024-02-23T04:06:31;105674.06;;;9.23;100.00
6034;BME280;3045;43.226;27.858;2024-02-23T04:08:58;107624.44;;;9.10;100.00
6034;BME280;3045;43.226;27.858;2024-02-23T04:11:25;96114.00;;;9.02;100.00
6034;BME280;3045;43.226;27.858;2024-02-23T04:13:52;95137.66;;;9.07;100.00
6034;BME280;3045;43.226;27.858;2024-02-23T04:16:22;93822.41;;;9.04;100.00
6034;BME280;3045;43.226;27.858;2024-02-23T04:18:52;89534.66;;;8.85;100.00
6034;BME280;3045;43.226;27.858;2024-02-23T04:21:19;83333.81;;;8.92;100.00
6034;BME280;3045;43.226;27.858;2024-02-23T04:23:47;78104.31;;;8.87;100.00
6034;BME280;3045;43.226;27.858;2024-02-23T04:26:14;72243.03;;;8.91;100.00
6034;BME280;3045;43.226;27.858;2024-02-23T04:28:41;70950.59;;;8.99;100.00
6034;BME280;3045;43.226;27.858;2024-02-23T04:31:09;70305.06;;;9.03;100.00
6034;BME280;3045;43.226;27.858;2024-02-23T04:33:36;70629.97;;;9.03;100.00
6034;BME280;3045;43.226;27.858;2024-02-23T04:36:05;71595.56;;;8.94;100.00
6034;BME280;3045;43.226;27.858;2024-02-23T04:38:33;70959.16;;;9.06;100.00
6034;BME280;3045;43.226;27.858;2024-02-23T04:41:03;71921.13;;;8.94;100.00
6034;BME280;3045;43.226;27.858;2024-02-23T04:43:31;66373.84;;;8.79;100.00
6034;BME280;3045;43.226;27.858;2024-02-23T04:45:58;63449.66;;;8.79;100.00
6034;BME280;3045;43.226;27.858;2024-02-23T04:48:25;57291.72;;;8.85;100.00
6034;BME280;3045;43.226;27.858;2024-02-23T04:50:52;64431.72;;;8.86;100.00
6034;BME280;3045;43.226;27.858;2024-02-23T04:53:20;64760.50;;;8.89;100.00
6034;BME280;3045;43.226;27.858;2024-02-23T04:55:48;60547.41;;;8.97;100.00
6034;BME280;3045;43.226;27.858;2024-02-23T04:58:15;56990.38;;;9.08;100.00
6034;BME280;3045;43.226;27.858;2024-02-23T05:00:42;59585.31;;;9.08;100.00
6034;BME280;3045;43.226;27.858;2024-02-23T05:03:09;62496.22;;;8.98;100.00
6034;BME280;3045;43.226;27.858;2024-02-23T05:05:36;62511.34;;;9.12;100.00
6034;BME280;3045;43.226;27.858;2024-02-23T05:08:03;62524.88;;;9.25;100.00
6034;BME280;3045;43.226;27.858;2024-02-23T05:10:32;66100.22;;;9.25;100.00
6034;BME280;3045;43.226;27.858;2024-02-23T05:12:59;73597.59;;;9.32;100.00
6034;BME280;3045;43.226;27.858;2024-02-23T05:15:26;103672.63;;;9.07;100.00
6034;BME280;3045;43.226;27.858;2024-02-23T05:17:53;80436.41;;;9.23;100.00
6034;BME280;3045;43.226;27.858;2024-02-23T05:20:20;71960.75;;;9.26;100.00
6034;BME280;3045;43.226;27.858;2024-02-23T05:22:47;91219.53;;;9.16;100.00
6034;BME280;3045;43.226;27.858;2024-02-23T05:25:15;106659.22;;;9.22;100.00
6034;BME280;3045;43.226;27.858;2024-02-23T05:27:43;83036.31;;;9.13;100.00
6034;BME280;3045;43.226;27.858;2024-02-23T05:30:12;76545.59;;;9.42;100.00
6034;BME280;3045;43.226;27.858;2024-02-23T05:32:39;72970.84;;;9.52;100.00
6034;BME280;3045;43.226;27.858;2024-02-23T05:35:06;84757.56;;;9.74;100.00
6034;BME280;3045;43.226;27.858;2024-02-23T05:37:34;89674.19;;;9.77;100.00
6034;BME280;3045;43.226;27.858;2024-02-23T05:40:03;99553.72;;;9.97;100.00
6034;BME280;3045;43.226;27.858;2024-02-23T05:42:35;103834.63;;;9.99;100.00
6034;BME280;3045;43.226;27.858;2024-02-23T05:45:04;108810.16;;;10.18;100.00
6034;BME280;3045;43.226;27.858;2024-02-23T05:47:34;117764.72;;;10.38;100.00
6034;BME280;3045;43.226;27.858;2024-02-23T05:50:01;138747.03;;;10.68;100.00
6034;BME280;3045;43.226;27.858;2024-02-23T05:52:29;148822.25;;;11.07;100.00
6034;BME280;3045;43.226;27.858;2024-02-23T05:54:56;148963.88;;;11.63;100.00
6034;BME280;3045;43.226;27.858;2024-02-23T05:57:25;148962.59;;;11.63;100.00
6034;BME280;3045;43.226;27.858;2024-02-23T05:59:52;149038.56;;;11.93;100.00
6034;BME280;3045;43.226;27.858;2024-02-23T06:02:22;149129.72;;;12.29;100.00
6034;BME280;3045;43.226;27.858;2024-02-23T06:04:49;149095.53;;;12.16;100.00
6034;BME280;3045;43.226;27.858;2024-02-23T06:07:16;149080.34;;;12.10;100.00
6034;BME280;3045;43.226;27.858;2024-02-23T06:09:43;149190.47;;;12.54;100.00
6034;BME280;3045;43.226;27.858;2024-02-23T06:12:10;149299.38;;;12.97;100.00
6034;BME280;3045;43.226;27.858;2024-02-23T06:14:37;149400.72;;;13.38;100.00
6034;BME280;3045;43.226;27.858;2024-02-23T06:17:05;149540.13;;;13.93;100.00
6034;BME280;3045;43.226;27.858;2024-02-23T06:19:35;149560.41;;;14.01;100.00
6034;BME280;3045;43.226;27.858;2024-02-23T06:22:02;149592.09;;;14.14;100.00
6034;BME280;3045;43.226;27.858;2024-02-23T06:24:29;149663.16;;;14.42;100.00
6034;BME280;3045;43.226;27.858;2024-02-23T06:26:56;149692.31;;;14.54;100.00
6034;BME280;3045;43.226;27.858;2024-02-23T06:29:26;149782.31;;;14.90;100.00
6034;BME280;3045;43.226;27.858;2024-02-23T06:31:53;149808.97;;;15.00;100.00
6034;BME280;3045;43.226;27.858;2024-02-23T06:34:20;149849.56;;;15.17;100.00
6034;BME280;3045;43.226;27.858;2024-02-23T06:36:48;149928.25;;;15.48;100.00
6034;BME280;3045;43.226;27.858;2024-02-23T06:39:15;149849.56;;;15.17;100.00
6034;BME280;3045;43.226;27.858;2024-02-23T06:41:43;149834.38;;;15.11;100.00
6034;BME280;3045;43.226;27.858;2024-02-23T06:44:10;149778.53;;;14.88;100.00
6034;BME280;3045;43.226;27.858;2024-02-23T06:46:37;149660.59;;;14.41;100.00
6034;BME280;3045;43.226;27.858;2024-02-23T06:49:03;149560.41;;;14.01;100.00
6034;BME280;3045;43.226;27.858;2024-02-23T06:51:31;149630.16;;;14.29;100.00
6034;BME280;3045;43.226;27.858;2024-02-23T06:54:00;149627.59;;;14.28;100.00
6034;BME280;3045;43.226;27.858;2024-02-23T06:56:29;149588.31;;;14.12;100.00
6034;BME280;3045;43.226;27.858;2024-02-23T06:58:59;149551.53;;;13.98;100.00
6034;BME280;3045;43.226;27.858;2024-02-23T07:01:26;149540.13;;;13.93;100.00
6034;BME280;3045;43.226;27.858;2024-02-23T07:03:54;149612.34;;;14.22;100.00
6034;BME280;3045;43.226;27.858;2024-02-23T07:06:21;149651.75;;;14.38;100.00
6034;BME280;3045;43.226;27.858;2024-02-23T07:08:48;149699.91;;;14.57;100.00
6034;BME280;3045;43.226;27.858;2024-02-23T07:11:16;149725.28;;;14.67;100.00
6034;BME280;3045;43.226;27.858;2024-02-23T07:13:44;149767.13;;;14.84;100.00
6034;BME280;3045;43.226;27.858;2024-02-23T07:16:11;149835.59;;;15.11;100.00
6034;BME280;3045;43.226;27.858;2024-02-23T07:18:40;149821.66;;;15.05;100.00
6034;BME280;3045;43.226;27.858;2024-02-23T07:21:08;149798.84;;;14.96;100.00
6034;BME280;3045;43.226;27.858;2024-02-23T07:23:35;149831.81;;;15.09;100.00
6034;BME280;3045;43.226;27.858;2024-02-23T07:26:02;149888.88;;;15.32;100.00
6034;BME280;3045;43.226;27.858;2024-02-23T07:28:30;149971.44;;;15.65;100.00
6034;BME280;3045;43.226;27.858;2024-02-23T07:30:58;150056.47;;;15.99;100.00
6034;BME280;3045;43.226;27.858;2024-02-23T07:33:26;150166.91;;;16.43;100.00
6034;BME280;3045;43.226;27.858;2024-02-23T07:35:55;150245.69;;;16.74;100.00
6034;BME280;3045;43.226;27.858;2024-02-23T07:38:22;150360.00;;;17.20;100.00
6034;BME280;3045;43.226;27.858;2024-02-23T07:40:50;150507.47;;;17.78;100.00
6034;BME280;3045;43.226;27.858;2024-02-23T07:43:17;150718.59;;;18.62;100.00
6034;BME280;3045;43.226;27.858;2024-02-23T07:45:45;150805.06;;;18.97;100.00
6034;BME280;3045;43.226;27.858;2024-02-23T07:48:12;151012.53;;;19.79;96.76
6034;BME280;3045;43.226;27.858;2024-02-23T07:50:39;151085.09;;;20.08;93.26
6034;BME280;3045;43.226;27.858;2024-02-23T07:53:06;151175.56;;;20.44;90.03
6034;BME280;3045;43.226;27.858;2024-02-23T07:55:33;151324.59;;;21.03;84.01
6034;BME280;3045;43.226;27.858;2024-02-23T07:58:00;151357.78;;;21.16;82.66
6034;BME280;3045;43.226;27.858;2024-02-23T08:00:27;151373.03;;;21.22;82.11
6034;BME280;3045;43.226;27.858;2024-02-23T08:02:56;151362.84;;;21.18;81.36
6034;BME280;3045;43.226;27.858;2024-02-23T08:05:25;151492.84;;;21.70;78.39
6034;BME280;3045;43.226;27.858;2024-02-23T08:07:53;151691.81;;;22.49;74.58
6034;BME280;3045;43.226;27.858;2024-02-23T08:10:20;151888.28;;;23.27;70.09
6034;BME280;3045;43.226;27.858;2024-02-23T08:12:47;151898.47;;;23.31;67.92
6034;BME280;3045;43.226;27.858;2024-02-23T08:15:14;151819.41;;;22.99;68.92
6034;BME280;3045;43.226;27.858;2024-02-23T08:17:41;151710.94;;;22.56;69.86
6034;BME280;3045;43.226;27.858;2024-02-23T08:20:16;151823.19;;;23.01;68.08
6034;BME280;3045;43.226;27.858;2024-02-23T08:22:43;151717.28;;;22.59;68.73
6034;BME280;3045;43.226;27.858;2024-02-23T08:25:10;151902.31;;;23.32;67.98
6034;BME280;3045;43.226;27.858;2024-02-23T08:27:38;151767.09;;;22.79;67.00
6034;BME280;3045;43.226;27.858;2024-02-23T08:30:08;151931.72;;;23.44;64.94
6034;BME280;3045;43.226;27.858;2024-02-23T08:32:35;152101.47;;;24.11;62.40
6034;BME280;3045;43.226;27.858;2024-02-23T08:35:02;152188.34;;;24.45;61.24
6034;BME280;3045;43.226;27.858;2024-02-23T08:37:31;151967.47;;;23.58;63.52
6034;BME280;3045;43.226;27.858;2024-02-23T08:39:58;152129.63;;;24.22;62.04
6034;BME280;3045;43.226;27.858;2024-02-23T08:42:26;152116.84;;;24.17;60.92
6034;BME280;3045;43.226;27.858;2024-02-23T08:44:53;152238.16;;;24.65;60.52
6034;BME280;3045;43.226;27.858;2024-02-23T08:47:20;152390.19;;;25.25;57.18
6034;BME280;3045;43.226;27.858;2024-02-23T08:49:47;152351.88;;;25.10;57.87
6034;BME280;3045;43.226;27.858;2024-02-23T08:52:15;152161.53;;;24.35;59.71
6034;BME280;3045;43.226;27.858;2024-02-23T08:54:43;152121.94;;;24.19;60.06
6034;BME280;3045;43.226;27.858;2024-02-23T08:57:10;152104.03;;;24.12;59.88
6034;BME280;3045;43.226;27.858;2024-02-23T08:59:37;152189.63;;;24.46;58.95
6034;BME280;3045;43.226;27.858;2024-02-23T09:02:05;152405.53;;;25.31;56.82
6034;BME280;3045;43.226;27.858;2024-02-23T09:04:38;152388.97;;;25.25;56.07
6034;BME280;3045;43.226;27.858;2024-02-23T09:07:06;152447.72;;;25.48;55.69
6034;BME280;3045;43.226;27.858;2024-02-23T09:09:33;152492.50;;;25.66;55.75
6034;BME280;3045;43.226;27.858;2024-02-23T09:12:03;152606.22;;;26.11;53.42
6034;BME280;3045;43.226;27.858;2024-02-23T09:14:32;152596.00;;;26.07;52.54
6034;BME280;3045;43.226;27.858;2024-02-23T09:17:03;152486.06;;;25.63;53.03
6034;BME280;3045;43.226;27.858;2024-02-23T09:19:31;152348.03;;;25.09;54.52
6034;BME280;3045;43.226;27.858;2024-02-23T09:21:58;152486.06;;;25.63;54.16
6034;BME280;3045;43.226;27.858;2024-02-23T09:24:26;152457.94;;;25.52;53.75
6034;BME280;3045;43.226;27.858;2024-02-23T09:26:53;152617.75;;;26.15;52.37
6034;BME280;3045;43.226;27.858;2024-02-23T09:29:22;152656.16;;;26.30;51.34
6034;BME280;3045;43.226;27.858;2024-02-23T09:31:49;152831.38;;;27.00;50.52
6034;BME280;3045;43.226;27.858;2024-02-23T09:34:16;152894.03;;;27.24;49.42
6034;BME280;3045;43.226;27.858;2024-02-23T09:36:43;152877.44;;;27.18;49.05
6034;BME280;3045;43.226;27.858;2024-02-23T09:39:10;152932.47;;;27.40;48.92
6034;BME280;3045;43.226;27.858;2024-02-23T09:41:39;153074.56;;;27.96;47.94
6034;BME280;3045;43.226;27.858;2024-02-23T09:44:07;153079.66;;;27.98;47.26
6034;BME280;3045;43.226;27.858;2024-02-23T09:46:37;153002.84;;;27.67;46.69
6034;BME280;3045;43.226;27.858;2024-02-23T09:49:04;153061.75;;;27.91;46.76
6034;BME280;3045;43.226;27.858;2024-02-23T09:51:33;152877.44;;;27.18;48.14
6034;BME280;3045;43.226;27.858;2024-02-23T09:54:02;153083.50;;;27.99;46.62
6034;BME280;3045;43.226;27.858;2024-02-23T09:56:29;153217.94;;;28.52;45.46
6034;BME280;3045;43.226;27.858;2024-02-23T09:59:00;153169.31;;;28.33;45.17
6034;BME280;3045;43.226;27.858;2024-02-23T10:01:28;153164.16;;;28.31;45.17
6034;BME280;3045;43.226;27.858;2024-02-23T10:03:58;153089.88;;;28.02;45.00
6034;BME280;3045;43.226;27.858;2024-02-23T10:06:25;153006.72;;;27.69;45.50
6034;BME280;3045;43.226;27.858;2024-02-23T10:08:53;153086.06;;;28.00;45.03
6034;BME280;3045;43.226;27.858;2024-02-23T10:11:20;152897.91;;;27.26;46.14
6034;BME280;3045;43.226;27.858;2024-02-23T10:13:48;153054.06;;;27.88;46.36
6034;BME280;3045;43.226;27.858;2024-02-23T10:16:17;153087.31;;;28.01;44.91
6034;BME280;3045;43.226;27.858;2024-02-23T10:18:45;153008.00;;;27.69;45.78
6034;BME280;3045;43.226;27.858;2024-02-23T10:21:15;153102.69;;;28.07;45.07
6034;BME280;3045;43.226;27.858;2024-02-23T10:23:43;153074.56;;;27.96;45.17
6034;BME280;3045;43.226;27.858;2024-02-23T10:26:11;152961.91;;;27.51;44.47
6034;BME280;3045;43.226;27.858;2024-02-23T10:28:38;153051.50;;;27.87;44.18
6034;BME280;3045;43.226;27.858;2024-02-23T10:31:05;152954.25;;;27.48;44.54
6034;BME280;3045;43.226;27.858;2024-02-23T10:33:34;152996.47;;;27.65;43.91
6034;BME280;3045;43.226;27.858;2024-02-23T10:36:04;153046.38;;;27.85;43.77
6034;BME280;3045;43.226;27.858;2024-02-23T10:38:35;153219.22;;;28.53;42.46
6034;BME280;3045;43.226;27.858;2024-02-23T10:41:05;153100.13;;;28.06;43.02
6034;BME280;3045;43.226;27.858;2024-02-23T10:43:41;153216.66;;;28.52;42.51
6034;BME280;3045;43.226;27.858;2024-02-23T10:46:09;153230.75;;;28.57;41.22
6034;BME280;3045;43.226;27.858;2024-02-23T10:48:39;152874.88;;;27.17;42.74
6034;BME280;3045;43.226;27.858;2024-02-23T10:51:07;153096.31;;;28.04;42.43
6034;BME280;3045;43.226;27.858;2024-02-23T10:53:37;152808.34;;;26.91;43.66
6034;BME280;3045;43.226;27.858;2024-02-23T10:56:05;152454.06;;;25.51;45.06
6034;BME280;3045;43.226;27.858;2024-02-23T10:58:33;152381.25;;;25.22;46.21
6034;BME280;3045;43.226;27.858;2024-02-23T11:01:02;152603.66;;;26.10;45.28
6034;BME280;3045;43.226;27.858;2024-02-23T11:03:31;152689.41;;;26.44;45.08
6034;BME280;3045;43.226;27.858;2024-02-23T11:05:59;152479.69;;;25.61;45.56
6034;BME280;3045;43.226;27.858;2024-02-23T11:08:28;152548.72;;;25.88;45.49
6034;BME280;3045;43.226;27.858;2024-02-23T11:10:56;152440.06;;;25.45;45.02
6034;BME280;3045;43.226;27.858;2024-02-23T11:13:34;152363.38;;;25.15;45.65
6034;BME280;3045;43.226;27.858;2024-02-23T11:16:02;152240.69;;;24.66;46.88
6034;BME280;3045;43.226;27.858;2024-02-23T11:18:30;152013.41;;;23.76;47.17
6034;BME280;3045;43.226;27.858;2024-02-23T11:20:59;151839.81;;;23.07;47.80
6034;BME280;3045;43.226;27.858;2024-02-23T11:23:27;151848.72;;;23.11;48.46
6034;BME280;3045;43.226;27.858;2024-02-23T11:26:06;152137.28;;;24.25;47.44
6034;BME280;3045;43.226;27.858;2024-02-23T11:28:41;152245.81;;;24.68;46.08
6034;BME280;3045;43.226;27.858;2024-02-23T11:31:12;152344.22;;;25.07;45.66
6034;BME280;3045;43.226;27.858;2024-02-23T11:33:39;152196.03;;;24.48;46.74
6034;BME280;3045;43.226;27.858;2024-02-23T11:36:07;151870.41;;;23.19;48.07
6034;BME280;3045;43.226;27.858;2024-02-23T11:38:35;151579.56;;;22.04;51.33
6034;BME280;3045;43.226;27.858;2024-02-23T11:41:02;151466.09;;;21.59;53.15
6034;BME280;3045;43.226;27.858;2024-02-23T11:43:34;151427.84;;;21.44;54.25
6034;BME280;3045;43.226;27.858;2024-02-23T11:46:02;151292.75;;;20.90;55.42
6034;BME280;3045;43.226;27.858;2024-02-23T11:48:29;151207.41;;;20.57;55.20
6034;BME280;3045;43.226;27.858;2024-02-23T11:50:56;151083.81;;;20.07;58.74
6034;BME280;3045;43.226;27.858;2024-02-23T11:53:23;150955.25;;;19.56;60.85
6034;BME280;3045;43.226;27.858;2024-02-23T11:55:52;150940.00;;;19.50;62.06
6034;BME280;3045;43.226;27.858;2024-02-23T11:58:20;150919.59;;;19.42;63.25
6034;BME280;3045;43.226;27.858;2024-02-23T12:00:48;150942.56;;;19.51;64.71
6034;BME280;3045;43.226;27.858;2024-02-23T12:03:17;150992.19;;;19.71;64.46
6034;BME280;3045;43.226;27.858;2024-02-23T12:05:44;151013.81;;;19.80;62.96
6034;BME280;3045;43.226;27.858;2024-02-23T12:08:11;150996.03;;;19.73;63.68
6034;BME280;3045;43.226;27.858;2024-02-23T12:10:39;150918.31;;;19.42;64.06
6034;BME280;3045;43.226;27.858;2024-02-23T12:13:06;150909.44;;;19.38;66.45
6034;BME280;3045;43.226;27.858;2024-02-23T12:15:33;150815.28;;;19.01;64.51
6034;BME280;3045;43.226;27.858;2024-02-23T12:18:03;150877.63;;;19.26;64.78
6034;BME280;3045;43.226;27.858;2024-02-23T12:20:33;150845.81;;;19.13;65.03
6034;BME280;3045;43.226;27.858;2024-02-23T12:23:00;150820.34;;;19.03;65.77
6034;BME280;3045;43.226;27.858;2024-02-23T12:25:28;150802.56;;;18.96;65.53
6034;BME280;3045;43.226;27.858;2024-02-23T12:27:55;150794.88;;;18.93;62.86
6034;BME280;3045;43.226;27.858;2024-02-23T12:30:23;150836.91;;;19.09;64.37
6034;BME280;3045;43.226;27.858;2024-02-23T12:32:52;150847.09;;;19.13;63.05
6034;BME280;3045;43.226;27.858;2024-02-23T12:35:30;150831.78;;;19.07;62.63
6034;BME280;3045;43.226;27.858;2024-02-23T12:37:57;150836.91;;;19.09;64.27
6034;BME280;3045;43.226;27.858;2024-02-23T12:40:24;150858.50;;;19.18;62.51
6034;BME280;3045;43.226;27.858;2024-02-23T12:42:51;150862.31;;;19.20;64.74
6034;BME280;3045;43.226;27.858;2024-02-23T12:45:19;150852.16;;;19.15;65.16
6034;BME280;3045;43.226;27.858;2024-02-23T12:47:46;150763.09;;;18.80;67.47
6034;BME280;3045;43.226;27.858;2024-02-23T12:50:13;150807.63;;;18.98;67.46
6034;BME280;3045;43.226;27.858;2024-02-23T12:52:41;150831.78;;;19.07;67.00
6034;BME280;3045;43.226;27.858;2024-02-23T12:55:08;150871.22;;;19.23;67.88
6034;BME280;3045;43.226;27.858;2024-02-23T12:57:35;150889.06;;;19.30;68.83
6034;BME280;3045;43.226;27.858;2024-02-23T13:00:03;150831.78;;;19.07;71.28
6034;BME280;3045;43.226;27.858;2024-02-23T13:02:31;150810.16;;;18.99;72.53